Time;durP1;ratioP1;P1;durP2;ratioP2;P2;SDS_P1;SDS_P2;PMS_P1;PMS_P2;Temp;Humidity;BMP_temperature;BMP_pressure;BME280_temperature;BME280_humidity;BME280_pressure;Samples;Min_cycle;Max_cycle;Signal;HPM_P1;HPM_P2
2023/12/28 00:01:47;;;;;;;17.17;2.88;;;;;;;8.17;100.00;100361.94;5024367;28;20030;-74
2023/12/28 00:04:13;;;;;;;23.05;3.22;;;;;;;8.17;100.00;100363.88;5025485;28;20056;-73
2023/12/28 00:06:38;;;;;;;15.35;2.45;;;;;;;8.14;100.00;100362.50;5027621;28;20053;-73
2023/12/28 00:09:04;;;;;;;18.42;2.90;;;;;;;8.11;100.00;100371.38;5028651;28;20033;-73
2023/12/28 00:11:29;;;;;;;26.67;2.53;;;;;;;8.09;100.00;100370.81;5028236;28;20033;-73
2023/12/28 00:13:55;;;;;;;22.67;2.88;;;;;;;8.07;100.00;100368.31;5024362;28;20025;-73
2023/12/28 00:16:20;;;;;;;24.20;2.78;;;;;;;8.04;100.00;100368.88;5027714;28;20084;-73
2023/12/28 00:18:46;;;;;;;23.67;2.80;;;;;;;8.05;100.00;100375.22;5031710;28;20037;-73
2023/12/28 00:21:11;;;;;;;18.00;2.38;;;;;;;8.03;100.00;100374.69;5030690;28;20044;-73
2023/12/28 00:23:37;;;;;;;23.48;2.78;;;;;;;8.01;100.00;100376.91;5032805;28;20033;-73
2023/12/28 00:26:02;;;;;;;19.85;3.22;;;;;;;8.02;100.00;100379.41;5029537;28;20036;-73
2023/12/28 00:28:28;;;;;;;21.52;3.22;;;;;;;8.04;100.00;100384.63;5028045;28;20068;-73
2023/12/28 00:30:53;;;;;;;18.45;3.13;;;;;;;8.00;100.00;100386.31;5026776;28;20029;-73
2023/12/28 00:33:19;;;;;;;31.25;4.20;;;;;;;8.01;100.00;100385.22;5031972;28;20026;-73
2023/12/28 00:35:44;;;;;;;27.95;3.45;;;;;;;8.01;100.00;100387.97;5029645;28;20474;-73
2023/12/28 00:38:09;;;;;;;28.63;3.67;;;;;;;7.98;100.00;100394.06;5028724;28;20034;-73
2023/12/28 00:40:35;;;;;;;23.33;2.95;;;;;;;7.99;100.00;100393.78;5031593;28;20029;-73
2023/12/28 00:43:00;;;;;;;27.20;3.72;;;;;;;7.95;100.00;100394.63;5025445;28;20029;-73
2023/12/28 00:45:26;;;;;;;20.17;2.67;;;;;;;7.97;100.00;100400.72;5054699;28;20092;-73
2023/12/28 00:47:52;;;;;;;27.65;2.83;;;;;;;7.98;100.00;100402.38;5020378;28;20546;-73
2023/12/28 00:50:17;;;;;;;27.48;3.40;;;;;;;7.95;100.00;100402.94;5026245;28;20536;-73
2023/12/28 00:52:43;;;;;;;26.10;3.67;;;;;;;7.92;100.00;100409.84;5024256;28;20059;-73
2023/12/28 00:55:08;;;;;;;19.45;2.60;;;;;;;7.91;100.00;100410.09;5024672;28;20032;-73
2023/12/28 00:57:34;;;;;;;21.65;2.80;;;;;;;7.89;100.00;100412.34;5018982;28;20505;-73
2023/12/28 01:00:00;;;;;;;26.83;3.15;;;;;;;7.85;100.00;100414.81;5021025;28;20041;-73
2023/12/28 01:02:25;;;;;;;27.25;3.45;;;;;;;7.86;100.00;100407.38;5026373;28;20092;-73
2023/12/28 01:04:51;;;;;;;24.30;2.97;;;;;;;7.87;100.00;100415.38;5026787;28;20025;-73
2023/12/28 01:07:16;;;;;;;18.98;2.88;;;;;;;7.83;100.00;100408.75;5024002;28;20041;-73
2023/12/28 01:09:41;;;;;;;24.25;2.80;;;;;;;7.83;100.00;100415.09;5029023;28;20100;-73
2023/12/28 01:12:07;;;;;;;27.13;3.22;;;;;;;7.82;100.00;100415.38;5026793;28;20042;-73
2023/12/28 01:14:33;;;;;;;18.48;2.75;;;;;;;7.79;100.00;100427.81;5029723;28;20034;-73
2023/12/28 01:16:58;;;;;;;21.80;2.67;;;;;;;7.79;100.00;100425.06;5034899;28;20036;-73
2023/12/28 01:19:24;;;;;;;17.90;2.92;;;;;;;7.77;100.00;100420.91;5038138;28;20049;-73
2023/12/28 01:21:50;;;;;;;29.42;2.83;;;;;;;7.77;100.00;100427.28;5037044;28;20044;-73
2023/12/28 01:24:15;;;;;;;22.10;3.50;;;;;;;7.73;100.00;100426.16;5028569;28;20049;-73
2023/12/28 01:26:41;;;;;;;26.95;3.72;;;;;;;7.74;100.00;100430.56;5020632;28;20041;-73
2023/12/28 01:29:06;;;;;;;25.05;3.03;;;;;;;7.70;100.00;100436.94;5037272;28;20033;-73
2023/12/28 01:31:32;;;;;;;22.48;2.95;;;;;;;7.70;100.00;100436.94;5038218;28;20029;-73
2023/12/28 01:33:58;;;;;;;24.20;3.03;;;;;;;7.70;100.00;100440.53;5037100;28;20040;-73
2023/12/28 01:36:23;;;;;;;22.35;3.35;;;;;;;7.62;100.00;100441.09;5037795;28;20036;-73
2023/12/28 01:38:48;;;;;;;20.15;3.25;;;;;;;7.60;100.00;100444.16;5037949;28;20320;-73
2023/12/28 01:41:15;;;;;;;17.77;2.65;;;;;;;7.61;100.00;100447.75;5038087;28;20478;-73
2023/12/28 01:43:41;;;;;;;21.83;2.97;;;;;;;7.56;100.00;100434.75;5035400;28;20095;-73
2023/12/28 01:46:06;;;;;;;23.73;3.50;;;;;;;7.58;100.00;100442.75;5037832;28;20030;-73
2023/12/28 01:48:32;;;;;;;25.73;3.17;;;;;;;7.54;100.00;100449.94;5036556;28;20041;-73
2023/12/28 01:50:57;;;;;;;22.92;3.13;;;;;;;7.50;100.00;100451.59;5037487;28;20060;-73
2023/12/28 01:53:23;;;;;;;24.73;3.28;;;;;;;7.49;100.00;100449.94;5019328;28;20033;-73
2023/12/28 01:55:48;;;;;;;16.83;3.10;;;;;;;7.50;100.00;100457.94;5037644;28;20029;-73
2023/12/28 01:58:14;;;;;;;16.90;2.50;;;;;;;7.42;100.00;100466.78;5037283;28;20025;-73
2023/12/28 02:00:39;;;;;;;22.17;3.30;;;;;;;7.38;100.00;100469.28;5037810;28;20026;-73
2023/12/28 02:03:06;;;;;;;17.88;3.83;;;;;;;7.41;100.00;100462.38;5017934;28;20033;-73
2023/12/28 02:05:32;;;;;;;16.88;2.30;;;;;;;7.43;100.00;100470.38;5039306;28;20103;-73
2023/12/28 02:07:58;;;;;;;18.48;2.05;;;;;;;7.42;100.00;100468.72;5034175;28;20029;-73
2023/12/28 02:10:23;;;;;;;23.35;3.08;;;;;;;7.43;100.00;100476.72;5036137;28;20610;-73
2023/12/28 02:12:49;;;;;;;25.23;3.45;;;;;;;7.31;100.00;100485.28;5037370;28;20029;-73
2023/12/28 02:15:15;;;;;;;23.73;2.58;;;;;;;7.35;100.00;100480.88;5035196;28;20087;-73
2023/12/28 02:17:48;;;;;;;20.80;2.97;;;;;;;7.34;100.00;100481.97;5035773;28;20037;-73
2023/12/28 02:20:14;;;;;;;19.20;3.42;;;;;;;7.27;100.00;100486.06;5019641;28;20129;-73
2023/12/28 02:22:40;;;;;;;20.35;2.65;;;;;;;7.28;100.00;100477.53;5037030;28;20041;-73
2023/12/28 02:25:11;;;;;;;22.30;2.85;;;;;;;7.26;100.00;100476.13;5041895;28;20061;-73
2023/12/28 02:27:48;;;;;;;25.35;3.05;;;;;;;7.24;100.00;100481.94;5043151;28;20032;-73
2023/12/28 02:30:18;;;;;;;24.23;2.92;;;;;;;7.21;100.00;100490.75;5035707;28;20034;-73
2023/12/28 02:33:07;;;;;;;21.90;3.20;;;;;;;7.20;100.00;100483.59;5019408;28;20029;-73
2023/12/28 02:35:56;;;;;;;22.23;3.58;;;;;;;7.16;100.00;100491.59;5035700;28;20429;-73
2023/12/28 02:38:22;;;;;;;22.85;3.50;;;;;;;7.16;100.00;100485.25;5031108;28;20076;-73
2023/12/28 02:40:47;;;;;;;20.30;3.05;;;;;;;7.17;100.00;100486.91;5019353;28;20041;-73
2023/12/28 02:43:13;;;;;;;21.88;3.08;;;;;;;7.13;100.00;100486.63;5035411;28;20658;-73
2023/12/28 02:45:39;;;;;;;26.38;3.20;;;;;;;7.15;100.00;100480.81;5036729;28;20364;-73
2023/12/28 02:48:04;;;;;;;26.40;3.65;;;;;;;7.13;100.00;100483.84;5035469;28;20033;-73
2023/12/28 02:50:30;;;;;;;18.42;3.33;;;;;;;7.12;100.00;100486.88;5035505;28;20146;-73
2023/12/28 02:52:58;;;;;;;17.70;2.17;;;;;;;7.05;100.00;100489.91;5035125;28;20034;-73
2023/12/28 02:55:24;;;;;;;19.85;2.88;;;;;;;7.06;100.00;100487.97;5036319;28;20132;-73
2023/12/28 02:57:50;;;;;;;21.77;3.15;;;;;;;7.05;100.00;100478.84;5035244;28;20036;-73
2023/12/28 03:00:15;;;;;;;19.52;2.53;;;;;;;7.05;100.00;100481.63;5035302;28;20112;-73
2023/12/28 03:02:41;;;;;;;28.85;3.67;;;;;;;7.02;100.00;100484.94;5036290;28;20029;-73
2023/12/28 03:05:07;;;;;;;27.75;3.47;;;;;;;7.00;100.00;100478.84;5036597;28;20084;-73
2023/12/28 03:07:35;;;;;;;24.45;3.05;;;;;;;7.01;100.00;100472.19;5042048;28;20057;-73
2023/12/28 03:10:01;;;;;;;29.70;3.13;;;;;;;7.03;100.00;100471.94;5036163;28;20033;-73
2023/12/28 03:12:27;;;;;;;29.38;3.70;;;;;;;7.00;100.00;100478.00;5034996;28;20474;-73
2023/12/28 03:14:53;;;;;;;31.13;3.30;;;;;;;6.99;100.00;100473.56;5028845;28;20022;-73
2023/12/28 03:17:18;;;;;;;18.77;2.45;;;;;;;7.00;100.00;100486.28;5041881;28;20033;-73
2023/12/28 03:19:44;;;;;;;23.25;3.60;;;;;;;6.98;100.00;100474.69;5034807;28;20064;-73
2023/12/28 03:22:09;;;;;;;23.63;3.65;;;;;;;7.01;100.00;100488.78;5035909;28;20041;-73
2023/12/28 03:24:36;;;;;;;20.02;2.85;;;;;;;6.96;100.00;100483.22;5044546;28;20030;-73
2023/12/28 03:27:05;;;;;;;28.50;3.33;;;;;;;6.96;100.00;100465.84;5035860;28;20041;-73
2023/12/28 03:29:30;;;;;;;26.02;2.92;;;;;;;6.99;100.00;100471.63;5034630;28;20108;-73
2023/12/28 03:31:58;;;;;;;23.30;2.88;;;;;;;6.96;100.00;100461.13;5034649;28;20045;-73
2023/12/28 03:34:26;;;;;;;19.08;2.33;;;;;;;6.94;100.00;100455.91;5035714;28;20112;-73
2023/12/28 03:36:52;;;;;;;18.17;2.30;;;;;;;6.93;100.00;100451.47;5033923;28;20120;-73
2023/12/28 03:39:17;;;;;;;26.85;3.67;;;;;;;6.92;100.00;100455.34;5034568;28;20575;-73
2023/12/28 03:41:43;;;;;;;16.33;3.08;;;;;;;6.91;100.00;100461.97;5034184;28;20033;-73
2023/12/28 03:44:08;;;;;;;27.70;3.30;;;;;;;6.89;100.00;100460.56;5035620;28;20461;-73
2023/12/28 03:46:34;;;;;;;24.63;2.85;;;;;;;6.88;100.00;100454.22;5035627;28;20029;-73
2023/12/28 03:48:59;;;;;;;28.67;3.00;;;;;;;6.85;100.00;100453.91;5035704;28;20171;-73
2023/12/28 03:51:24;;;;;;;27.58;2.80;;;;;;;6.84;100.00;100455.03;5035280;28;20029;-73
2023/12/28 03:53:50;;;;;;;19.75;3.00;;;;;;;6.83;100.00;100468.00;5028918;28;20044;-73
2023/12/28 03:56:35;;;;;;;21.83;2.90;;;;;;;6.83;100.00;100456.97;5035356;28;20036;-73
2023/12/28 03:59:01;;;;;;;27.83;3.08;;;;;;;6.79;100.00;100461.34;5030545;28;20041;-74
2023/12/28 04:01:26;;;;;;;25.92;2.90;;;;;;;6.78;100.00;100465.22;5027364;28;20501;-73
2023/12/28 04:03:52;;;;;;;20.65;4.03;;;;;;;6.78;100.00;100456.94;5024898;28;20026;-73
2023/12/28 04:06:17;;;;;;;20.10;2.75;;;;;;;6.74;100.00;100461.31;5022973;28;20030;-73
2023/12/28 04:08:43;;;;;;;24.83;3.35;;;;;;;6.74;100.00;100455.81;5023711;28;20021;-73
2023/12/28 04:11:08;;;;;;;17.08;3.00;;;;;;;6.71;100.00;100457.22;5028475;28;20491;-73
2023/12/28 04:13:34;;;;;;;26.27;2.85;;;;;;;6.71;100.00;100459.13;5023895;28;20037;-73
2023/12/28 04:15:59;;;;;;;20.35;2.95;;;;;;;6.71;100.00;100462.72;5026113;28;20030;-73
2023/12/28 04:18:24;;;;;;;24.13;3.30;;;;;;;6.68;100.00;100462.41;5026242;28;20033;-73
2023/12/28 04:20:50;;;;;;;19.05;3.63;;;;;;;6.68;100.00;100454.97;5023784;28;20049;-73
2023/12/28 04:23:15;;;;;;;24.13;3.90;;;;;;;6.64;100.00;100442.00;5024003;28;20038;-73
2023/12/28 04:25:41;;;;;;;25.98;2.88;;;;;;;6.65;100.00;100451.91;5025750;28;20426;-73
2023/12/28 04:28:07;;;;;;;18.10;2.78;;;;;;;6.64;100.00;100450.25;5024396;28;20030;-73
2023/12/28 04:30:32;;;;;;;22.55;2.97;;;;;;;6.63;100.00;100451.34;5025821;28;20059;-74
2023/12/28 04:32:58;;;;;;;23.00;2.70;;;;;;;6.62;100.00;100456.03;5008386;28;20483;-73
2023/12/28 04:35:23;;;;;;;19.85;2.33;;;;;;;6.62;100.00;100456.03;5027345;28;20029;-73
2023/12/28 04:37:49;;;;;;;19.98;2.95;;;;;;;6.59;100.00;100464.03;5023806;28;20239;-73
2023/12/28 04:40:14;;;;;;;14.73;2.08;;;;;;;6.55;100.00;100468.44;5027929;28;20038;-73
2023/12/28 04:42:40;;;;;;;20.20;2.40;;;;;;;6.52;100.00;100472.56;5027769;28;20109;-73
2023/12/28 04:45:07;;;;;;;21.30;2.60;;;;;;;6.49;100.00;100468.41;5025458;28;20030;-73
2023/12/28 04:47:32;;;;;;;19.02;3.30;;;;;;;6.54;100.00;100469.53;5029718;28;20033;-73
2023/12/28 04:49:58;;;;;;;21.95;2.72;;;;;;;6.52;100.00;100472.56;5014086;28;20025;-73
2023/12/28 04:52:23;;;;;;;21.92;2.63;;;;;;;6.49;100.00;100471.19;5031583;28;20029;-73
2023/12/28 04:54:49;;;;;;;15.73;2.67;;;;;;;6.48;100.00;100461.22;5028539;28;20025;-73
2023/12/28 04:57:14;;;;;;;20.65;2.60;;;;;;;6.49;100.00;100443.59;5030457;28;20033;-73
2023/12/28 04:59:40;;;;;;;26.70;3.10;;;;;;;6.47;100.00;100442.19;5033621;28;20553;-73
2023/12/28 05:02:05;;;;;;;23.30;2.83;;;;;;;6.46;100.00;100446.88;5031200;28;20061;-73
2023/12/28 05:04:31;;;;;;;22.48;3.35;;;;;;;6.45;100.00;100439.69;5021128;28;20038;-73
2023/12/28 05:06:56;;;;;;;21.70;2.83;;;;;;;6.45;100.00;100438.88;5026687;28;20088;-73
2023/12/28 05:09:21;;;;;;;28.00;3.05;;;;;;;6.43;100.00;100435.53;5027896;28;20397;-73
2023/12/28 05:11:47;;;;;;;23.10;2.33;;;;;;;6.39;100.00;100428.91;5045400;28;20084;-73
2023/12/28 05:14:12;;;;;;;22.83;2.67;;;;;;;6.41;100.00;100430.31;5027497;28;20029;-73
2023/12/28 05:16:38;;;;;;;32.10;3.53;;;;;;;6.45;100.00;100441.63;5028684;28;20056;-73
2023/12/28 05:19:04;;;;;;;21.98;3.13;;;;;;;6.40;100.00;100447.09;5026620;28;20050;-73
2023/12/28 05:21:29;;;;;;;23.35;3.38;;;;;;;6.43;100.00;100430.00;5028648;28;20041;-73
2023/12/28 05:23:55;;;;;;;18.13;3.20;;;;;;;6.43;100.00;100439.13;5029743;28;20037;-73
2023/12/28 05:26:20;;;;;;;30.38;3.17;;;;;;;6.43;100.00;100452.09;5014675;28;20045;-73
2023/12/28 05:28:46;;;;;;;19.90;2.72;;;;;;;6.42;100.00;100445.75;5030169;28;20048;-73
2023/12/28 05:31:13;;;;;;;24.08;2.83;;;;;;;6.42;100.00;100447.69;5028491;28;20041;-73
2023/12/28 05:33:42;;;;;;;23.92;3.28;;;;;;;6.40;100.00;100449.88;5029354;28;20521;-73
2023/12/28 05:36:07;;;;;;;29.00;2.88;;;;;;;6.35;100.00;100449.84;5025787;28;20107;-73
2023/12/28 05:38:33;;;;;;;22.48;3.13;;;;;;;6.32;100.00;100448.44;5022686;28;20033;-73
2023/12/28 05:40:59;;;;;;;24.73;3.08;;;;;;;6.34;100.00;100446.25;5028554;28;20030;-73
2023/12/28 05:43:24;;;;;;;17.13;2.80;;;;;;;6.33;100.00;100450.13;5026826;28;20034;-73
2023/12/28 05:45:50;;;;;;;28.35;3.15;;;;;;;6.34;100.00;100453.69;5027544;28;20037;-73
2023/12/28 05:48:15;;;;;;;25.88;3.22;;;;;;;6.35;100.00;100450.69;5028499;28;20049;-73
2023/12/28 05:50:41;;;;;;;22.77;3.35;;;;;;;6.32;100.00;100442.91;5029055;28;20045;-73
2023/12/28 05:53:06;;;;;;;23.23;2.88;;;;;;;6.36;100.00;100459.78;5028595;28;20099;-73
2023/12/28 05:55:31;;;;;;;20.42;3.30;;;;;;;6.32;100.00;100451.19;5025258;28;20029;-72
2023/12/28 05:57:57;;;;;;;18.33;3.00;;;;;;;6.28;100.00;100458.34;5029866;28;20621;-73
2023/12/28 06:00:22;;;;;;;17.88;2.35;;;;;;;6.29;100.00;100460.00;5029758;28;20032;-72
2023/12/28 06:02:51;;;;;;;24.65;3.45;;;;;;;6.26;100.00;100457.78;5010566;28;20075;-73
2023/12/28 06:05:17;;;;;;;25.80;3.90;;;;;;;6.24;100.00;100465.47;5029056;28;20037;-72
2023/12/28 06:07:43;;;;;;;24.88;2.90;;;;;;;6.23;100.00;100461.06;5032388;28;22745;-73
2023/12/28 06:10:09;;;;;;;22.10;3.00;;;;;;;6.24;100.00;100457.22;5028069;28;20034;-73
2023/12/28 06:12:34;;;;;;;24.77;2.65;;;;;;;6.24;100.00;100457.22;5026298;28;20033;-73
2023/12/28 06:15:00;;;;;;;26.60;3.45;;;;;;;6.19;100.00;100460.78;5029520;28;20106;-73
2023/12/28 06:17:25;;;;;;;19.90;2.50;;;;;;;6.26;100.00;100468.81;5027869;28;20426;-73
2023/12/28 06:19:51;;;;;;;19.88;2.42;;;;;;;6.24;100.00;100465.47;5020854;28;20557;-73
2023/12/28 06:22:16;;;;;;;22.60;2.95;;;;;;;6.23;100.00;100474.88;5025479;28;20037;-73
2023/12/28 06:24:41;;;;;;;24.45;3.85;;;;;;;6.22;100.00;100473.22;5029920;28;20034;-73
2023/12/28 06:27:07;;;;;;;15.52;2.20;;;;;;;6.23;100.00;100475.69;5025657;28;20037;-73
2023/12/28 06:29:32;;;;;;;22.08;3.40;;;;;;;6.15;100.00;100478.94;5030608;28;20046;-73
2023/12/28 06:31:58;;;;;;;28.02;2.92;;;;;;;6.14;100.00;100473.72;5027680;28;20037;-73
2023/12/28 06:34:23;;;;;;;14.93;2.55;;;;;;;6.14;100.00;100473.72;5029415;28;20026;-73
2023/12/28 06:36:49;;;;;;;25.35;3.40;;;;;;;6.15;100.00;100472.59;5027598;28;20046;-73
2023/12/28 06:39:14;;;;;;;20.83;2.85;;;;;;;6.12;100.00;100481.41;5027115;28;20057;-73
2023/12/28 06:41:40;;;;;;;22.48;3.22;;;;;;;6.13;100.00;100488.56;5030185;28;20044;-73
2023/12/28 06:44:05;;;;;;;23.33;2.42;;;;;;;6.09;100.00;100487.47;5026445;28;20041;-73
2023/12/28 06:46:31;;;;;;;22.17;3.03;;;;;;;6.09;100.00;100476.44;5026700;28;20394;-73
2023/12/28 06:48:58;;;;;;;22.92;3.08;;;;;;;6.07;100.00;100482.19;5027513;28;20033;-73
2023/12/28 06:51:24;;;;;;;20.77;2.50;;;;;;;6.06;100.00;100480.53;5027802;28;20493;-73
2023/12/28 06:53:49;;;;;;;19.92;2.80;;;;;;;6.03;100.00;100481.91;5027345;28;20021;-73
2023/12/28 06:56:15;;;;;;;18.20;2.30;;;;;;;6.06;100.00;100486.06;5027692;28;20117;-73
2023/12/28 06:58:41;;;;;;;22.25;2.90;;;;;;;6.01;100.00;100484.09;5026097;28;20044;-73
2023/12/28 07:01:06;;;;;;;19.70;3.00;;;;;;;6.02;100.00;100491.28;5025787;28;20398;-73
2023/12/28 07:03:32;;;;;;;21.98;3.17;;;;;;;5.99;100.00;100488.19;5025587;28;20026;-73
2023/12/28 07:05:58;;;;;;;19.23;2.75;;;;;;;5.97;100.00;100493.16;5027182;28;20030;-73
2023/12/28 07:08:24;;;;;;;26.02;3.60;;;;;;;5.97;100.00;100499.50;5029975;28;20026;-73
2023/12/28 07:10:50;;;;;;;16.92;2.47;;;;;;;5.94;100.00;100504.72;5027065;28;20289;-73
2023/12/28 07:13:15;;;;;;;19.77;2.63;;;;;;;5.95;100.00;100501.69;5027203;28;20400;-73
2023/12/28 07:15:40;;;;;;;18.48;2.22;;;;;;;5.91;100.00;100503.28;5025653;28;20045;-73
2023/12/28 07:18:06;;;;;;;25.17;3.00;;;;;;;5.92;100.00;100501.38;5024675;28;20049;-72
2023/12/28 07:20:31;;;;;;;22.17;3.50;;;;;;;5.90;100.00;100504.38;5027894;28;20046;-73
2023/12/28 07:22:57;;;;;;;18.08;2.60;;;;;;;5.92;100.00;100501.38;5030427;28;20032;-73
2023/12/28 07:25:22;;;;;;;24.55;2.90;;;;;;;5.88;100.00;100502.97;5021693;28;20030;-73
2023/12/28 07:27:48;;;;;;;16.58;3.15;;;;;;;5.89;100.00;100502.72;5021854;28;20045;-73
2023/12/28 07:30:14;;;;;;;23.48;2.88;;;;;;;5.85;100.00;100496.09;5021964;28;20487;-73
2023/12/28 07:32:39;;;;;;;15.60;2.58;;;;;;;5.84;100.00;100502.66;5027024;28;20033;-73
2023/12/28 07:35:05;;;;;;;13.52;2.33;;;;;;;5.86;100.00;100502.41;5027835;28;20030;-73
2023/12/28 07:37:30;;;;;;;19.85;2.95;;;;;;;5.81;100.00;100505.94;5027544;28;20033;-73
2023/12/28 07:39:57;;;;;;;19.25;2.25;;;;;;;5.79;100.00;100511.75;5026826;28;20021;-73
2023/12/28 07:42:22;;;;;;;24.15;3.33;;;;;;;5.83;100.00;100510.13;5026087;28;20043;-73
2023/12/28 07:44:48;;;;;;;18.85;3.10;;;;;;;5.81;100.00;100505.94;5027021;28;20026;-73
2023/12/28 07:47:15;;;;;;;17.67;2.42;;;;;;;5.81;100.00;100512.28;5028395;28;20390;-73
2023/12/28 07:49:40;;;;;;;24.33;2.72;;;;;;;5.80;100.00;100504.31;5027107;28;20033;-73
2023/12/28 07:52:06;;;;;;;20.50;2.60;;;;;;;5.85;100.00;100504.34;5025548;28;20033;-72
2023/12/28 07:54:31;;;;;;;25.00;3.15;;;;;;;5.85;100.00;100507.13;5023333;28;20039;-73
2023/12/28 07:57:00;;;;;;;24.50;3.47;;;;;;;5.85;100.00;100511.75;5028234;28;20025;-73
2023/12/28 07:59:25;;;;;;;19.98;3.00;;;;;;;5.87;100.00;100504.91;5034510;28;20125;-73
2023/12/28 08:01:51;;;;;;;19.75;3.25;;;;;;;5.93;100.00;100508.53;5035533;28;20026;-72
2023/12/28 08:04:16;;;;;;;17.40;2.50;;;;;;;5.92;100.00;100510.47;5035435;28;20517;-73
2023/12/28 08:06:42;;;;;;;20.58;2.45;;;;;;;5.96;100.00;100519.91;5037392;28;20033;-73
2023/12/28 08:09:08;;;;;;;22.17;2.80;;;;;;;5.96;100.00;100519.91;5018554;28;20160;-73
2023/12/28 08:11:34;;;;;;;19.10;2.53;;;;;;;5.95;100.00;100521.00;5035276;28;20553;-73
2023/12/28 08:13:59;;;;;;;18.02;2.67;;;;;;;5.99;100.00;100521.28;5034286;28;20022;-73
2023/12/28 08:16:26;;;;;;;20.50;2.60;;;;;;;5.98;100.00;100517.69;5030184;28;20486;-73
2023/12/28 08:18:51;;;;;;;27.30;2.88;;;;;;;6.02;100.00;100518.84;5033968;28;20096;-73
2023/12/28 08:21:17;;;;;;;19.10;2.90;;;;;;;6.05;100.00;100525.78;5033769;28;20037;-73
2023/12/28 08:23:43;;;;;;;21.50;2.85;;;;;;;6.10;100.00;100516.69;5045202;28;20025;-73
2023/12/28 08:26:09;;;;;;;20.17;3.25;;;;;;;6.09;100.00;100521.38;5039326;28;20566;-73
2023/12/28 08:28:35;;;;;;;22.00;3.50;;;;;;;6.12;100.00;100511.75;5039263;28;20077;-73
2023/12/28 08:31:00;;;;;;;25.15;2.83;;;;;;;6.13;100.00;100513.41;5038130;28;20481;-73
2023/12/28 08:33:26;;;;;;;20.60;2.78;;;;;;;6.16;100.00;100518.41;5039268;28;20026;-73
2023/12/28 08:35:51;;;;;;;19.90;3.58;;;;;;;6.18;100.00;100516.19;5039001;28;20033;-73
2023/12/28 08:38:17;;;;;;;19.20;3.38;;;;;;;6.23;100.00;100516.25;5039130;28;20026;-73
2023/12/28 08:40:44;;;;;;;15.95;2.47;;;;;;;6.19;100.00;100526.16;5039233;28;20034;-73
2023/12/28 08:43:09;;;;;;;20.90;3.03;;;;;;;6.21;100.00;100521.19;5037513;28;20025;-73
2023/12/28 08:45:35;;;;;;;27.48;3.17;;;;;;;6.31;100.00;100525.94;5039121;28;20485;-72
2023/12/28 08:48:01;;;;;;;16.15;2.90;;;;;;;6.32;100.00;100525.66;5021422;28;20040;-73
2023/12/28 08:50:26;;;;;;;23.35;2.83;;;;;;;6.38;100.00;100526.53;5037395;28;20500;-73
2023/12/28 08:52:52;;;;;;;28.67;3.35;;;;;;;6.41;100.00;100532.38;5035370;28;20620;-73
2023/12/28 08:55:18;;;;;;;26.58;3.35;;;;;;;6.45;100.00;100541.75;5038542;28;20029;-73
2023/12/28 08:57:43;;;;;;;29.25;4.90;;;;;;;6.51;100.00;100536.28;5036437;28;20034;-73
2023/12/28 09:00:10;;;;;;;30.58;3.92;;;;;;;6.56;100.00;100539.91;5021052;28;20025;-73
2023/12/28 09:02:35;;;;;;;20.52;2.83;;;;;;;6.60;100.00;100552.09;5038637;28;20029;-73
2023/12/28 09:05:01;;;;;;;28.35;3.60;;;;;;;6.67;100.00;100541.63;5037387;28;20531;-73
2023/12/28 09:07:26;;;;;;;36.72;4.10;;;;;;;6.75;100.00;100547.75;5042385;28;20037;-73
2023/12/28 09:09:52;;;;;;;25.90;3.53;;;;;;;6.80;100.00;100547.75;5035531;28;20080;-73
2023/12/28 09:12:17;;;;;;;26.70;3.10;;;;;;;6.87;100.00;100549.19;5021073;28;20022;-73
2023/12/28 09:14:42;;;;;;;26.17;3.60;;;;;;;6.92;100.00;100556.66;5038680;28;20105;-73
2023/12/28 09:17:08;;;;;;;27.95;2.88;;;;;;;6.98;100.00;100552.00;5034348;28;20034;-73
2023/12/28 09:19:33;;;;;;;22.80;4.40;;;;;;;7.03;100.00;100546.50;5038295;28;20064;-73
2023/12/28 09:21:59;;;;;;;23.05;3.05;;;;;;;7.12;100.00;100542.94;5038229;28;20036;-73
2023/12/28 09:24:24;;;;;;;27.25;2.78;;;;;;;7.20;100.00;100533.31;5045578;28;20025;-73
2023/12/28 09:26:56;;;;;;;29.77;4.07;;;;;;;7.30;100.00;100543.53;5038443;28;20030;-78
2023/12/28 09:29:21;;;;;;;29.38;5.07;;;;;;;7.43;100.00;100542.22;5004970;28;20068;-74
2023/12/28 09:31:47;;;;;;;32.30;4.35;;;;;;;7.52;100.00;100541.41;5037349;28;20478;-73
2023/12/28 09:34:12;;;;;;;29.20;3.25;;;;;;;7.61;100.00;100533.41;5033836;28;20026;-73
2023/12/28 09:36:38;;;;;;;25.08;3.83;;;;;;;7.74;100.00;100543.91;5030567;28;20056;-73
2023/12/28 09:39:03;;;;;;;27.38;4.05;;;;;;;7.87;100.00;100538.97;5038253;28;20036;-73
2023/12/28 09:41:30;;;;;;;26.40;3.40;;;;;;;7.99;100.00;100543.13;5036965;28;20037;-73
2023/12/28 09:44:05;;;;;;;33.20;3.88;;;;;;;8.13;100.00;100546.16;5004224;28;20612;-74
2023/12/28 09:46:31;;;;;;;29.42;4.55;;;;;;;8.25;100.00;100549.50;5003874;28;20040;-73
2023/12/28 09:48:57;;;;;;;37.13;4.72;;;;;;;8.38;100.00;100553.63;5020398;28;20022;-73
2023/12/28 09:51:22;;;;;;;36.38;4.20;;;;;;;8.51;100.00;100552.25;5017379;28;20080;-73
2023/12/28 09:53:47;;;;;;;26.48;3.47;;;;;;;8.63;100.00;100541.69;5019511;28;20037;-76
2023/12/28 09:56:14;;;;;;;27.60;3.47;;;;;;;8.77;100.00;100543.88;5036547;28;20588;-73
2023/12/28 09:58:39;;;;;;;28.15;3.90;;;;;;;8.89;100.00;100548.03;5019937;28;20125;-73
2023/12/28 10:01:05;;;;;;;26.42;3.92;;;;;;;8.98;100.00;100552.97;5020028;28;20025;-73
2023/12/28 10:03:30;;;;;;;25.30;3.33;;;;;;;9.10;100.00;100550.69;5036296;28;20040;-73
2023/12/28 10:05:56;;;;;;;32.65;3.67;;;;;;;9.24;100.00;100562.84;5039710;28;20541;-73
2023/12/28 10:08:21;;;;;;;25.15;3.17;;;;;;;9.30;100.00;100547.00;5037582;28;20025;-73
2023/12/28 10:10:50;;;;;;;36.47;3.53;;;;;;;9.42;100.00;100553.06;5036260;28;20029;-73
2023/12/28 10:13:16;;;;;;;24.13;3.55;;;;;;;9.48;100.00;100549.13;5037779;28;20029;-73
2023/12/28 10:15:43;;;;;;;38.55;4.00;;;;;;;9.57;100.00;100561.28;5015915;28;20080;-73
2023/12/28 10:18:08;;;;;;;33.60;4.07;;;;;;;9.68;100.00;100556.50;5019720;28;20197;-74
2023/12/28 10:20:34;;;;;;;24.20;3.08;;;;;;;9.77;100.00;100565.88;5035960;28;20089;-73
2023/12/28 10:22:59;;;;;;;23.27;3.30;;;;;;;9.84;100.00;100554.47;5041273;28;20965;-73
2023/12/28 10:25:25;;;;;;;23.00;3.67;;;;;;;9.90;100.00;100558.03;5040098;28;20032;-73
2023/12/28 10:27:53;;;;;;;28.33;3.40;;;;;;;9.98;100.00;100557.41;5036158;28;20037;-73
2023/12/28 10:30:20;;;;;;;29.92;3.83;;;;;;;10.05;100.00;100553.19;5019702;28;20041;-73
2023/12/28 10:32:45;;;;;;;27.83;4.05;;;;;;;10.10;100.00;100545.94;5037050;28;20117;-73
2023/12/28 10:35:11;;;;;;;30.73;3.65;;;;;;;10.18;100.00;100548.09;4996444;28;20060;-73
2023/12/28 10:37:37;;;;;;;29.80;3.20;;;;;;;10.22;100.00;100546.38;5017458;28;20112;-74
2023/12/28 10:40:06;;;;;;;23.63;3.15;;;;;;;10.29;100.00;100544.16;5011699;28;20033;-73
2023/12/28 10:42:32;;;;;;;23.92;3.40;;;;;;;10.36;100.00;100541.03;5027455;28;20115;-73
2023/12/28 10:45:05;;;;;;;26.00;3.42;;;;;;;10.42;100.00;100537.06;4994713;28;20100;-73
2023/12/28 10:47:36;;;;;;;21.92;3.15;;;;;;;10.48;100.00;100536.75;5027826;28;20040;-73
2023/12/28 10:50:06;;;;;;;26.65;3.38;;;;;;;10.54;100.00;100536.69;5026069;28;20088;-73
2023/12/28 10:52:35;;;;;;;25.73;3.92;;;;;;;10.58;100.00;100534.97;5039382;28;20049;-73
2023/12/28 10:55:23;;;;;;;24.15;3.42;;;;;;;10.64;100.00;100536.56;5026511;28;20037;-73
2023/12/28 10:57:58;;;;;;;29.25;3.42;;;;;;;10.72;100.00;100538.72;5000024;28;20029;-73
2023/12/28 11:00:25;;;;;;;22.77;3.42;;;;;;;10.77;100.00;100533.09;5026734;28;20037;-73
2023/12/28 11:02:54;;;;;;;22.33;3.45;;;;;;;10.83;100.00;100533.88;5026491;28;20037;-74
2023/12/28 11:05:19;;;;;;;19.60;3.28;;;;;;;10.87;100.00;100527.44;5026335;28;20119;-75
2023/12/28 11:07:45;;;;;;;24.40;3.58;;;;;;;10.95;100.00;100534.31;5022816;28;20038;-74
2023/12/28 11:10:11;;;;;;;18.80;2.83;;;;;;;11.01;100.00;100544.22;5023325;28;20037;-74
2023/12/28 11:12:37;;;;;;;20.00;2.90;;;;;;;11.08;100.00;100533.56;5025493;28;20596;-74